sensor_id;sensor_type;location;lat;lon;timestamp;P1;durP1;ratioP1;P2;durP2;ratioP2
11618;SDS011;5865;48.776;9.280;2023-06-14T00:02:24;4.80;;;2.77;;
11618;SDS011;5865;48.776;9.280;2023-06-14T00:04:53;3.90;;;2.93;;
11618;SDS011;5865;48.776;9.280;2023-06-14T00:07:39;3.80;;;3.03;;
11618;SDS011;5865;48.776;9.280;2023-06-14T00:10:13;3.23;;;2.90;;
11618;SDS011;5865;48.776;9.280;2023-06-14T00:12:54;3.83;;;2.80;;
11618;SDS011;5865;48.776;9.280;2023-06-14T00:15:26;4.43;;;2.90;;
11618;SDS011;5865;48.776;9.280;2023-06-14T00:18:03;3.50;;;3.10;;
11618;SDS011;5865;48.776;9.280;2023-06-14T00:20:31;4.03;;;3.30;;
11618;SDS011;5865;48.776;9.280;2023-06-14T00:23:00;7.33;;;2.90;;
11618;SDS011;5865;48.776;9.280;2023-06-14T00:25:28;4.90;;;3.20;;
11618;SDS011;5865;48.776;9.280;2023-06-14T00:27:56;5.33;;;2.90;;
11618;SDS011;5865;48.776;9.280;2023-06-14T00:30:23;6.80;;;3.23;;
11618;SDS011;5865;48.776;9.280;2023-06-14T00:32:55;3.50;;;3.00;;
11618;SDS011;5865;48.776;9.280;2023-06-14T00:35:36;3.53;;;3.10;;
11618;SDS011;5865;48.776;9.280;2023-06-14T00:38:06;4.10;;;3.10;;
11618;SDS011;5865;48.776;9.280;2023-06-14T00:40:33;4.03;;;2.93;;
11618;SDS011;5865;48.776;9.280;2023-06-14T00:43:04;5.53;;;3.27;;
11618;SDS011;5865;48.776;9.280;2023-06-14T00:45:32;3.37;;;3.00;;
11618;SDS011;5865;48.776;9.280;2023-06-14T00:48:01;3.40;;;3.10;;
11618;SDS011;5865;48.776;9.280;2023-06-14T00:50:34;4.00;;;3.10;;
11618;SDS011;5865;48.776;9.280;2023-06-14T00:53:07;4.30;;;3.20;;
11618;SDS011;5865;48.776;9.280;2023-06-14T00:55:50;4.73;;;3.10;;
11618;SDS011;5865;48.776;9.280;2023-06-14T00:58:19;5.00;;;3.60;;
11618;SDS011;5865;48.776;9.280;2023-06-14T01:00:56;5.07;;;3.50;;
11618;SDS011;5865;48.776;9.280;2023-06-14T01:03:26;4.87;;;3.63;;
11618;SDS011;5865;48.776;9.280;2023-06-14T01:05:57;6.20;;;4.00;;
11618;SDS011;5865;48.776;9.280;2023-06-14T01:08:56;6.47;;;3.80;;
11618;SDS011;5865;48.776;9.280;2023-06-14T01:11:31;4.40;;;3.87;;
11618;SDS011;5865;48.776;9.280;2023-06-14T01:25:08;5.13;;;3.97;;
11618;SDS011;5865;48.776;9.280;2023-06-14T01:27:49;5.87;;;4.37;;
11618;SDS011;5865;48.776;9.280;2023-06-14T01:30:24;5.07;;;3.80;;
11618;SDS011;5865;48.776;9.280;2023-06-14T01:32:53;5.40;;;4.13;;
11618;SDS011;5865;48.776;9.280;2023-06-14T01:35:23;5.30;;;3.90;;
11618;SDS011;5865;48.776;9.280;2023-06-14T01:37:50;5.67;;;3.90;;
11618;SDS011;5865;48.776;9.280;2023-06-14T01:40:26;5.10;;;4.20;;
11618;SDS011;5865;48.776;9.280;2023-06-14T01:42:55;6.03;;;4.10;;
11618;SDS011;5865;48.776;9.280;2023-06-14T01:45:23;5.40;;;3.87;;
11618;SDS011;5865;48.776;9.280;2023-06-14T01:47:52;6.40;;;4.87;;
11618;SDS011;5865;48.776;9.280;2023-06-14T01:50:20;5.77;;;4.47;;
11618;SDS011;5865;48.776;9.280;2023-06-14T01:52:47;5.67;;;4.50;;
11618;SDS011;5865;48.776;9.280;2023-06-14T01:55:32;6.47;;;4.50;;
11618;SDS011;5865;48.776;9.280;2023-06-14T01:58:05;6.30;;;4.87;;
11618;SDS011;5865;48.776;9.280;2023-06-14T02:00:46;5.80;;;4.70;;
11618;SDS011;5865;48.776;9.280;2023-06-14T02:03:13;7.03;;;4.43;;
11618;SDS011;5865;48.776;9.280;2023-06-14T02:05:44;7.37;;;4.47;;
11618;SDS011;5865;48.776;9.280;2023-06-14T02:08:12;6.17;;;4.33;;
11618;SDS011;5865;48.776;9.280;2023-06-14T02:10:57;7.60;;;4.77;;
11618;SDS011;5865;48.776;9.280;2023-06-14T02:13:31;6.10;;;4.90;;
11618;SDS011;5865;48.776;9.280;2023-06-14T02:16:05;8.87;;;4.83;;
11618;SDS011;5865;48.776;9.280;2023-06-14T02:18:34;5.87;;;4.70;;
11618;SDS011;5865;48.776;9.280;2023-06-14T02:21:04;8.23;;;5.53;;
11618;SDS011;5865;48.776;9.280;2023-06-14T02:23:33;6.83;;;5.10;;
11618;SDS011;5865;48.776;9.280;2023-06-14T02:26:02;7.43;;;4.93;;
11618;SDS011;5865;48.776;9.280;2023-06-14T02:28:39;9.10;;;5.30;;
11618;SDS011;5865;48.776;9.280;2023-06-14T02:31:08;6.90;;;5.33;;
11618;SDS011;5865;48.776;9.280;2023-06-14T02:33:38;6.50;;;5.03;;
11618;SDS011;5865;48.776;9.280;2023-06-14T02:36:05;7.83;;;5.10;;
11618;SDS011;5865;48.776;9.280;2023-06-14T02:38:33;6.70;;;5.30;;
11618;SDS011;5865;48.776;9.280;2023-06-14T02:41:16;7.33;;;5.73;;
11618;SDS011;5865;48.776;9.280;2023-06-14T02:43:43;7.57;;;5.47;;
11618;SDS011;5865;48.776;9.280;2023-06-14T02:46:11;7.93;;;5.07;;
11618;SDS011;5865;48.776;9.280;2023-06-14T02:48:38;6.83;;;5.40;;
11618;SDS011;5865;48.776;9.280;2023-06-14T02:51:08;6.50;;;5.07;;
11618;SDS011;5865;48.776;9.280;2023-06-14T02:53:37;6.60;;;5.37;;
11618;SDS011;5865;48.776;9.280;2023-06-14T02:59:17;9.37;;;5.23;;
11618;SDS011;5865;48.776;9.280;2023-06-14T03:01:58;6.20;;;5.17;;
11618;SDS011;5865;48.776;9.280;2023-06-14T03:04:33;7.80;;;5.47;;
11618;SDS011;5865;48.776;9.280;2023-06-14T03:07:16;7.43;;;5.97;;
11618;SDS011;5865;48.776;9.280;2023-06-14T03:09:48;11.77;;;5.80;;
11618;SDS011;5865;48.776;9.280;2023-06-14T03:12:17;6.03;;;4.90;;
11618;SDS011;5865;48.776;9.280;2023-06-14T03:14:46;7.53;;;4.90;;
11618;SDS011;5865;48.776;9.280;2023-06-14T03:17:17;6.93;;;5.50;;
11618;SDS011;5865;48.776;9.280;2023-06-14T03:19:45;6.00;;;5.33;;
11618;SDS011;5865;48.776;9.280;2023-06-14T03:22:14;7.37;;;5.80;;
11618;SDS011;5865;48.776;9.280;2023-06-14T03:24:43;7.00;;;5.33;;
11618;SDS011;5865;48.776;9.280;2023-06-14T03:27:13;6.70;;;5.23;;
11618;SDS011;5865;48.776;9.280;2023-06-14T03:29:46;6.27;;;5.03;;
11618;SDS011;5865;48.776;9.280;2023-06-14T03:32:13;6.40;;;5.03;;
11618;SDS011;5865;48.776;9.280;2023-06-14T03:34:42;9.03;;;5.40;;
11618;SDS011;5865;48.776;9.280;2023-06-14T03:37:24;8.47;;;5.33;;
11618;SDS011;5865;48.776;9.280;2023-06-14T03:40:06;7.03;;;5.30;;
11618;SDS011;5865;48.776;9.280;2023-06-14T03:42:39;6.50;;;4.80;;
11618;SDS011;5865;48.776;9.280;2023-06-14T03:45:22;5.33;;;4.80;;
11618;SDS011;5865;48.776;9.280;2023-06-14T03:48:04;5.63;;;4.97;;
11618;SDS011;5865;48.776;9.280;2023-06-14T03:53:02;6.03;;;4.83;;
11618;SDS011;5865;48.776;9.280;2023-06-14T03:55:31;6.80;;;5.13;;
11618;SDS011;5865;48.776;9.280;2023-06-14T03:57:59;6.97;;;4.90;;
11618;SDS011;5865;48.776;9.280;2023-06-14T04:00:28;5.93;;;4.73;;
11618;SDS011;5865;48.776;9.280;2023-06-14T04:02:57;9.60;;;5.03;;
11618;SDS011;5865;48.776;9.280;2023-06-14T04:05:24;5.77;;;4.90;;
11618;SDS011;5865;48.776;9.280;2023-06-14T04:07:53;5.33;;;4.77;;
11618;SDS011;5865;48.776;9.280;2023-06-14T04:10:21;7.50;;;5.03;;
11618;SDS011;5865;48.776;9.280;2023-06-14T04:12:48;7.23;;;4.90;;
11618;SDS011;5865;48.776;9.280;2023-06-14T04:15:16;5.93;;;5.00;;
11618;SDS011;5865;48.776;9.280;2023-06-14T04:17:45;7.70;;;4.90;;
11618;SDS011;5865;48.776;9.280;2023-06-14T04:20:12;8.47;;;4.63;;
11618;SDS011;5865;48.776;9.280;2023-06-14T04:22:40;6.40;;;4.50;;
11618;SDS011;5865;48.776;9.280;2023-06-14T04:25:10;9.77;;;4.67;;
11618;SDS011;5865;48.776;9.280;2023-06-14T04:27:38;6.97;;;4.60;;
11618;SDS011;5865;48.776;9.280;2023-06-14T04:30:06;6.30;;;4.83;;
11618;SDS011;5865;48.776;9.280;2023-06-14T04:32:43;6.07;;;5.20;;
11618;SDS011;5865;48.776;9.280;2023-06-14T04:35:13;7.20;;;4.80;;
11618;SDS011;5865;48.776;9.280;2023-06-14T04:37:43;7.27;;;4.50;;
11618;SDS011;5865;48.776;9.280;2023-06-14T04:40:11;6.43;;;4.33;;
11618;SDS011;5865;48.776;9.280;2023-06-14T04:42:40;4.77;;;3.73;;
11618;SDS011;5865;48.776;9.280;2023-06-14T04:45:14;6.03;;;4.77;;
11618;SDS011;5865;48.776;9.280;2023-06-14T04:47:55;7.07;;;4.80;;
11618;SDS011;5865;48.776;9.280;2023-06-14T04:56:24;6.77;;;4.37;;
11618;SDS011;5865;48.776;9.280;2023-06-14T04:58:53;5.83;;;4.43;;
11618;SDS011;5865;48.776;9.280;2023-06-14T05:01:22;6.03;;;5.10;;
11618;SDS011;5865;48.776;9.280;2023-06-14T05:03:51;5.83;;;4.80;;
11618;SDS011;5865;48.776;9.280;2023-06-14T05:06:18;6.53;;;4.70;;
11618;SDS011;5865;48.776;9.280;2023-06-14T05:08:55;7.23;;;4.87;;
11618;SDS011;5865;48.776;9.280;2023-06-14T05:11:22;6.90;;;5.00;;
11618;SDS011;5865;48.776;9.280;2023-06-14T05:13:51;5.13;;;4.33;;
11618;SDS011;5865;48.776;9.280;2023-06-14T05:16:33;5.60;;;4.13;;
11618;SDS011;5865;48.776;9.280;2023-06-14T05:19:01;8.57;;;4.40;;
11618;SDS011;5865;48.776;9.280;2023-06-14T05:21:29;5.20;;;4.27;;
11618;SDS011;5865;48.776;9.280;2023-06-14T05:52:10;6.32;;;4.40;;
11618;SDS011;5865;48.776;9.280;2023-06-14T05:54:38;6.78;;;3.72;;
11618;SDS011;5865;48.776;9.280;2023-06-14T05:57:06;5.32;;;3.63;;
11618;SDS011;5865;48.776;9.280;2023-06-14T05:59:33;5.82;;;3.90;;
11618;SDS011;5865;48.776;9.280;2023-06-14T06:02:00;5.03;;;3.85;;
11618;SDS011;5865;48.776;9.280;2023-06-14T06:04:27;5.47;;;3.90;;
11618;SDS011;5865;48.776;9.280;2023-06-14T06:06:54;4.55;;;4.00;;
11618;SDS011;5865;48.776;9.280;2023-06-14T06:09:22;6.95;;;4.05;;
11618;SDS011;5865;48.776;9.280;2023-06-14T06:11:49;5.85;;;4.38;;
11618;SDS011;5865;48.776;9.280;2023-06-14T06:14:16;6.90;;;4.50;;
11618;SDS011;5865;48.776;9.280;2023-06-14T06:16:43;6.35;;;4.10;;
11618;SDS011;5865;48.776;9.280;2023-06-14T06:19:10;3.97;;;3.67;;
11618;SDS011;5865;48.776;9.280;2023-06-14T06:21:37;6.57;;;3.88;;
11618;SDS011;5865;48.776;9.280;2023-06-14T06:24:05;5.78;;;3.97;;
11618;SDS011;5865;48.776;9.280;2023-06-14T06:26:33;8.68;;;4.10;;
11618;SDS011;5865;48.776;9.280;2023-06-14T06:29:00;5.82;;;4.45;;
11618;SDS011;5865;48.776;9.280;2023-06-14T06:31:27;6.78;;;4.20;;
11618;SDS011;5865;48.776;9.280;2023-06-14T06:33:54;5.47;;;4.20;;
11618;SDS011;5865;48.776;9.280;2023-06-14T06:36:21;5.28;;;3.90;;
11618;SDS011;5865;48.776;9.280;2023-06-14T06:38:48;8.27;;;4.70;;
11618;SDS011;5865;48.776;9.280;2023-06-14T06:41:15;4.68;;;4.22;;
11618;SDS011;5865;48.776;9.280;2023-06-14T06:43:44;7.07;;;4.03;;
11618;SDS011;5865;48.776;9.280;2023-06-14T06:46:11;6.07;;;3.92;;
11618;SDS011;5865;48.776;9.280;2023-06-14T06:48:38;6.25;;;3.67;;
11618;SDS011;5865;48.776;9.280;2023-06-14T06:51:05;3.90;;;3.15;;
11618;SDS011;5865;48.776;9.280;2023-06-14T06:53:32;5.05;;;3.78;;
11618;SDS011;5865;48.776;9.280;2023-06-14T06:55:59;5.88;;;3.50;;
11618;SDS011;5865;48.776;9.280;2023-06-14T06:58:26;4.00;;;3.15;;
11618;SDS011;5865;48.776;9.280;2023-06-14T07:00:54;6.57;;;3.50;;
11618;SDS011;5865;48.776;9.280;2023-06-14T07:03:21;3.95;;;3.22;;
11618;SDS011;5865;48.776;9.280;2023-06-14T07:05:48;6.07;;;3.70;;
11618;SDS011;5865;48.776;9.280;2023-06-14T07:08:15;4.30;;;3.60;;
11618;SDS011;5865;48.776;9.280;2023-06-14T07:10:42;4.82;;;3.20;;
11618;SDS011;5865;48.776;9.280;2023-06-14T07:13:09;4.88;;;3.60;;
11618;SDS011;5865;48.776;9.280;2023-06-14T07:15:36;4.00;;;3.50;;
11618;SDS011;5865;48.776;9.280;2023-06-14T07:18:05;6.63;;;3.50;;
11618;SDS011;5865;48.776;9.280;2023-06-14T07:20:33;4.85;;;3.42;;
11618;SDS011;5865;48.776;9.280;2023-06-14T07:23:00;5.00;;;3.60;;
11618;SDS011;5865;48.776;9.280;2023-06-14T07:25:27;5.22;;;3.42;;
11618;SDS011;5865;48.776;9.280;2023-06-14T07:27:54;4.57;;;3.60;;
11618;SDS011;5865;48.776;9.280;2023-06-14T07:30:21;4.50;;;3.83;;
11618;SDS011;5865;48.776;9.280;2023-06-14T07:32:51;5.60;;;3.80;;
11618;SDS011;5865;48.776;9.280;2023-06-14T07:35:19;5.45;;;3.33;;
11618;SDS011;5865;48.776;9.280;2023-06-14T07:37:46;4.10;;;3.30;;
11618;SDS011;5865;48.776;9.280;2023-06-14T07:40:13;4.85;;;3.17;;
11618;SDS011;5865;48.776;9.280;2023-06-14T07:42:40;6.68;;;3.42;;
11618;SDS011;5865;48.776;9.280;2023-06-14T07:45:07;5.35;;;3.78;;
11618;SDS011;5865;48.776;9.280;2023-06-14T07:47:35;5.13;;;3.67;;
11618;SDS011;5865;48.776;9.280;2023-06-14T07:50:02;3.80;;;3.30;;
11618;SDS011;5865;48.776;9.280;2023-06-14T07:52:32;5.40;;;3.47;;
11618;SDS011;5865;48.776;9.280;2023-06-14T07:54:59;4.00;;;3.60;;
11618;SDS011;5865;48.776;9.280;2023-06-14T07:57:26;5.22;;;3.53;;
11618;SDS011;5865;48.776;9.280;2023-06-14T07:59:53;4.65;;;3.50;;
11618;SDS011;5865;48.776;9.280;2023-06-14T08:02:20;6.05;;;3.30;;
11618;SDS011;5865;48.776;9.280;2023-06-14T08:04:47;9.23;;;3.60;;
11618;SDS011;5865;48.776;9.280;2023-06-14T08:07:14;5.15;;;3.03;;
11618;SDS011;5865;48.776;9.280;2023-06-14T08:09:42;3.85;;;3.28;;
11618;SDS011;5865;48.776;9.280;2023-06-14T08:12:09;5.95;;;3.55;;
11618;SDS011;5865;48.776;9.280;2023-06-14T08:14:36;5.75;;;3.55;;
11618;SDS011;5865;48.776;9.280;2023-06-14T08:17:05;6.20;;;3.42;;
11618;SDS011;5865;48.776;9.280;2023-06-14T08:19:32;5.60;;;3.60;;
11618;SDS011;5865;48.776;9.280;2023-06-14T08:21:59;3.90;;;3.50;;
11618;SDS011;5865;48.776;9.280;2023-06-14T08:24:26;4.47;;;3.97;;
11618;SDS011;5865;48.776;9.280;2023-06-14T08:26:54;4.93;;;3.40;;
11618;SDS011;5865;48.776;9.280;2023-06-14T08:29:22;5.55;;;3.30;;
11618;SDS011;5865;48.776;9.280;2023-06-14T08:31:49;6.25;;;3.65;;
11618;SDS011;5865;48.776;9.280;2023-06-14T08:34:16;5.90;;;3.65;;
11618;SDS011;5865;48.776;9.280;2023-06-14T08:36:43;5.88;;;4.05;;
11618;SDS011;5865;48.776;9.280;2023-06-14T08:39:10;4.68;;;3.20;;
11618;SDS011;5865;48.776;9.280;2023-06-14T08:41:38;5.95;;;3.50;;
11618;SDS011;5865;48.776;9.280;2023-06-14T08:44:06;4.43;;;3.78;;
11618;SDS011;5865;48.776;9.280;2023-06-14T08:46:33;4.65;;;3.40;;
11618;SDS011;5865;48.776;9.280;2023-06-14T08:49:03;4.97;;;3.20;;
11618;SDS011;5865;48.776;9.280;2023-06-14T08:51:31;7.60;;;4.20;;
11618;SDS011;5865;48.776;9.280;2023-06-14T08:54:02;4.28;;;3.45;;
11618;SDS011;5865;48.776;9.280;2023-06-14T08:56:29;3.78;;;3.38;;
11618;SDS011;5865;48.776;9.280;2023-06-14T08:58:59;5.95;;;3.67;;
11618;SDS011;5865;48.776;9.280;2023-06-14T09:01:30;5.30;;;3.17;;
11618;SDS011;5865;48.776;9.280;2023-06-14T09:03:59;4.95;;;3.53;;
11618;SDS011;5865;48.776;9.280;2023-06-14T09:06:27;5.53;;;3.40;;
11618;SDS011;5865;48.776;9.280;2023-06-14T09:08:55;6.85;;;3.53;;
11618;SDS011;5865;48.776;9.280;2023-06-14T09:11:22;4.85;;;4.00;;
11618;SDS011;5865;48.776;9.280;2023-06-14T09:13:51;4.47;;;3.45;;
11618;SDS011;5865;48.776;9.280;2023-06-14T09:16:18;4.70;;;3.58;;
11618;SDS011;5865;48.776;9.280;2023-06-14T09:18:47;3.70;;;3.33;;
11618;SDS011;5865;48.776;9.280;2023-06-14T09:21:14;4.43;;;3.40;;
11618;SDS011;5865;48.776;9.280;2023-06-14T09:23:42;6.50;;;3.42;;
11618;SDS011;5865;48.776;9.280;2023-06-14T09:26:11;4.57;;;3.10;;
11618;SDS011;5865;48.776;9.280;2023-06-14T09:28:41;6.30;;;3.38;;
11618;SDS011;5865;48.776;9.280;2023-06-14T09:31:09;4.55;;;3.40;;
11618;SDS011;5865;48.776;9.280;2023-06-14T09:33:37;4.35;;;3.42;;
11618;SDS011;5865;48.776;9.280;2023-06-14T09:36:05;6.53;;;3.40;;
11618;SDS011;5865;48.776;9.280;2023-06-14T09:38:37;4.00;;;3.30;;
11618;SDS011;5865;48.776;9.280;2023-06-14T09:41:06;4.15;;;3.40;;
11618;SDS011;5865;48.776;9.280;2023-06-14T09:43:33;3.63;;;3.15;;
11618;SDS011;5865;48.776;9.280;2023-06-14T09:46:00;4.32;;;3.17;;
11618;SDS011;5865;48.776;9.280;2023-06-14T09:48:28;4.50;;;3.30;;
11618;SDS011;5865;48.776;9.280;2023-06-14T09:50:55;7.72;;;3.38;;
11618;SDS011;5865;48.776;9.280;2023-06-14T09:53:26;4.05;;;3.08;;
11618;SDS011;5865;48.776;9.280;2023-06-14T09:55:56;5.75;;;3.10;;
11618;SDS011;5865;48.776;9.280;2023-06-14T09:58:25;5.68;;;3.35;;
11618;SDS011;5865;48.776;9.280;2023-06-14T10:00:54;8.35;;;3.42;;
11618;SDS011;5865;48.776;9.280;2023-06-14T10:03:24;4.03;;;3.17;;
11618;SDS011;5865;48.776;9.280;2023-06-14T10:05:54;4.80;;;3.20;;
11618;SDS011;5865;48.776;9.280;2023-06-14T10:08:27;6.18;;;2.80;;
11618;SDS011;5865;48.776;9.280;2023-06-14T10:10:58;3.85;;;2.83;;
11618;SDS011;5865;48.776;9.280;2023-06-14T10:13:25;6.07;;;3.00;;
11618;SDS011;5865;48.776;9.280;2023-06-14T10:16:00;5.05;;;3.00;;
11618;SDS011;5865;48.776;9.280;2023-06-14T10:18:38;4.25;;;2.65;;
11618;SDS011;5865;48.776;9.280;2023-06-14T10:21:13;7.70;;;3.00;;
11618;SDS011;5865;48.776;9.280;2023-06-14T10:23:46;4.15;;;2.75;;
11618;SDS011;5865;48.776;9.280;2023-06-14T10:26:21;3.58;;;3.10;;
11618;SDS011;5865;48.776;9.280;2023-06-14T10:28:56;3.63;;;3.00;;
11618;SDS011;5865;48.776;9.280;2023-06-14T10:31:40;4.75;;;2.83;;
11618;SDS011;5865;48.776;9.280;2023-06-14T10:34:08;5.00;;;3.40;;
11618;SDS011;5865;48.776;9.280;2023-06-14T10:36:35;4.57;;;3.13;;
11618;SDS011;5865;48.776;9.280;2023-06-14T10:39:08;4.60;;;2.90;;
11618;SDS011;5865;48.776;9.280;2023-06-14T10:41:37;5.22;;;2.92;;
11618;SDS011;5865;48.776;9.280;2023-06-14T10:47:07;4.20;;;3.17;;
11618;SDS011;5865;48.776;9.280;2023-06-14T10:49:37;5.13;;;3.05;;
11618;SDS011;5865;48.776;9.280;2023-06-14T10:52:11;3.95;;;3.00;;
11618;SDS011;5865;48.776;9.280;2023-06-14T10:57:36;3.38;;;2.97;;
11618;SDS011;5865;48.776;9.280;2023-06-14T11:00:05;6.13;;;3.00;;
11618;SDS011;5865;48.776;9.280;2023-06-14T11:02:51;7.85;;;3.40;;
11618;SDS011;5865;48.776;9.280;2023-06-14T11:05:40;6.07;;;3.15;;
11618;SDS011;5865;48.776;9.280;2023-06-14T11:08:17;3.70;;;2.78;;
11618;SDS011;5865;48.776;9.280;2023-06-14T11:10:58;4.93;;;3.00;;
11618;SDS011;5865;48.776;9.280;2023-06-14T11:13:26;3.05;;;2.75;;
11618;SDS011;5865;48.776;9.280;2023-06-14T11:15:54;4.05;;;3.00;;
11618;SDS011;5865;48.776;9.280;2023-06-14T11:18:22;4.43;;;3.03;;
11618;SDS011;5865;48.776;9.280;2023-06-14T11:20:50;4.30;;;2.75;;
11618;SDS011;5865;48.776;9.280;2023-06-14T11:23:17;4.18;;;3.05;;
11618;SDS011;5865;48.776;9.280;2023-06-14T11:25:49;5.53;;;3.10;;
11618;SDS011;5865;48.776;9.280;2023-06-14T11:28:18;3.22;;;2.90;;
11618;SDS011;5865;48.776;9.280;2023-06-14T11:30:46;4.15;;;3.15;;
11618;SDS011;5865;48.776;9.280;2023-06-14T11:33:16;4.93;;;3.25;;
11618;SDS011;5865;48.776;9.280;2023-06-14T11:35:44;4.28;;;3.42;;
11618;SDS011;5865;48.776;9.280;2023-06-14T11:38:11;5.40;;;3.08;;
11618;SDS011;5865;48.776;9.280;2023-06-14T11:40:39;5.63;;;3.17;;
11618;SDS011;5865;48.776;9.280;2023-06-14T11:43:06;4.63;;;3.30;;
11618;SDS011;5865;48.776;9.280;2023-06-14T11:45:34;4.60;;;3.05;;
11618;SDS011;5865;48.776;9.280;2023-06-14T11:48:02;4.68;;;2.70;;
11618;SDS011;5865;48.776;9.280;2023-06-14T11:50:30;5.63;;;3.00;;
11618;SDS011;5865;48.776;9.280;2023-06-14T11:52:58;3.33;;;2.97;;
11618;SDS011;5865;48.776;9.280;2023-06-14T11:55:31;5.65;;;2.92;;
11618;SDS011;5865;48.776;9.280;2023-06-14T11:58:01;6.25;;;3.10;;
11618;SDS011;5865;48.776;9.280;2023-06-14T12:00:29;3.92;;;2.63;;
11618;SDS011;5865;48.776;9.280;2023-06-14T12:02:58;5.15;;;3.13;;
11618;SDS011;5865;48.776;9.280;2023-06-14T12:05:25;5.30;;;2.80;;
11618;SDS011;5865;48.776;9.280;2023-06-14T12:07:57;6.10;;;2.78;;
11618;SDS011;5865;48.776;9.280;2023-06-14T12:10:25;5.82;;;2.70;;
11618;SDS011;5865;48.776;9.280;2023-06-14T12:12:56;5.43;;;3.17;;
11618;SDS011;5865;48.776;9.280;2023-06-14T12:15:24;5.78;;;2.83;;
11618;SDS011;5865;48.776;9.280;2023-06-14T12:17:54;5.75;;;2.97;;
11618;SDS011;5865;48.776;9.280;2023-06-14T12:20:22;4.13;;;3.30;;
11618;SDS011;5865;48.776;9.280;2023-06-14T12:22:55;6.05;;;3.00;;
11618;SDS011;5865;48.776;9.280;2023-06-14T12:25:24;3.60;;;2.90;;
11618;SDS011;5865;48.776;9.280;2023-06-14T12:27:53;4.60;;;2.90;;
11618;SDS011;5865;48.776;9.280;2023-06-14T12:30:20;3.22;;;2.92;;
11618;SDS011;5865;48.776;9.280;2023-06-14T12:32:47;3.13;;;2.83;;
11618;SDS011;5865;48.776;9.280;2023-06-14T12:35:16;4.45;;;3.00;;
11618;SDS011;5865;48.776;9.280;2023-06-14T12:37:45;4.18;;;2.90;;
11618;SDS011;5865;48.776;9.280;2023-06-14T12:40:12;3.63;;;3.03;;
11618;SDS011;5865;48.776;9.280;2023-06-14T12:42:39;4.57;;;3.25;;
11618;SDS011;5865;48.776;9.280;2023-06-14T12:45:07;4.45;;;2.92;;
11618;SDS011;5865;48.776;9.280;2023-06-14T12:47:34;3.47;;;3.17;;
11618;SDS011;5865;48.776;9.280;2023-06-14T12:50:01;5.43;;;2.72;;
11618;SDS011;5865;48.776;9.280;2023-06-14T12:52:28;2.97;;;2.60;;
11618;SDS011;5865;48.776;9.280;2023-06-14T12:54:57;6.28;;;3.15;;
11618;SDS011;5865;48.776;9.280;2023-06-14T12:57:23;6.05;;;3.03;;
11618;SDS011;5865;48.776;9.280;2023-06-14T12:59:50;3.63;;;2.80;;
11618;SDS011;5865;48.776;9.280;2023-06-14T13:02:20;6.95;;;3.00;;
11618;SDS011;5865;48.776;9.280;2023-06-14T13:04:48;3.40;;;3.10;;
11618;SDS011;5865;48.776;9.280;2023-06-14T13:07:16;5.32;;;2.95;;
11618;SDS011;5865;48.776;9.280;2023-06-14T13:09:43;4.43;;;2.55;;
11618;SDS011;5865;48.776;9.280;2023-06-14T13:12:11;3.13;;;2.63;;
11618;SDS011;5865;48.776;9.280;2023-06-14T13:14:38;3.83;;;2.80;;
11618;SDS011;5865;48.776;9.280;2023-06-14T13:17:07;2.92;;;2.60;;
11618;SDS011;5865;48.776;9.280;2023-06-14T13:19:35;4.22;;;2.80;;
11618;SDS011;5865;48.776;9.280;2023-06-14T13:22:02;3.70;;;2.70;;
11618;SDS011;5865;48.776;9.280;2023-06-14T13:24:30;5.53;;;2.67;;
11618;SDS011;5865;48.776;9.280;2023-06-14T13:26:57;5.35;;;2.70;;
11618;SDS011;5865;48.776;9.280;2023-06-14T13:29:25;4.22;;;2.70;;
11618;SDS011;5865;48.776;9.280;2023-06-14T13:31:52;4.05;;;2.78;;
11618;SDS011;5865;48.776;9.280;2023-06-14T13:34:20;3.75;;;2.72;;
11618;SDS011;5865;48.776;9.280;2023-06-14T13:36:48;3.58;;;2.60;;
11618;SDS011;5865;48.776;9.280;2023-06-14T13:39:15;3.08;;;2.65;;
11618;SDS011;5865;48.776;9.280;2023-06-14T13:41:42;3.85;;;2.70;;
11618;SDS011;5865;48.776;9.280;2023-06-14T13:44:09;2.85;;;2.65;;
11618;SDS011;5865;48.776;9.280;2023-06-14T13:46:40;6.20;;;3.10;;
11618;SDS011;5865;48.776;9.280;2023-06-14T13:49:08;3.92;;;2.70;;
11618;SDS011;5865;48.776;9.280;2023-06-14T13:51:35;4.88;;;2.70;;
11618;SDS011;5865;48.776;9.280;2023-06-14T13:54:02;5.40;;;2.80;;
11618;SDS011;5865;48.776;9.280;2023-06-14T13:56:30;3.97;;;2.67;;
11618;SDS011;5865;48.776;9.280;2023-06-14T13:58:57;3.97;;;2.85;;
11618;SDS011;5865;48.776;9.280;2023-06-14T14:01:25;5.53;;;3.00;;
11618;SDS011;5865;48.776;9.280;2023-06-14T14:03:55;5.32;;;2.72;;
11618;SDS011;5865;48.776;9.280;2023-06-14T14:06:23;4.70;;;2.80;;
11618;SDS011;5865;48.776;9.280;2023-06-14T14:08:50;3.83;;;3.00;;
11618;SDS011;5865;48.776;9.280;2023-06-14T14:11:18;4.35;;;2.88;;
11618;SDS011;5865;48.776;9.280;2023-06-14T14:13:46;4.20;;;2.85;;
11618;SDS011;5865;48.776;9.280;2023-06-14T14:16:13;6.28;;;2.90;;
11618;SDS011;5865;48.776;9.280;2023-06-14T14:18:40;6.55;;;3.22;;
11618;SDS011;5865;48.776;9.280;2023-06-14T14:21:08;3.85;;;3.13;;
11618;SDS011;5865;48.776;9.280;2023-06-14T14:23:35;6.45;;;3.00;;
11618;SDS011;5865;48.776;9.280;2023-06-14T14:26:02;3.17;;;2.88;;
11618;SDS011;5865;48.776;9.280;2023-06-14T14:28:29;3.90;;;2.90;;
11618;SDS011;5865;48.776;9.280;2023-06-14T14:30:57;5.15;;;2.80;;
11618;SDS011;5865;48.776;9.280;2023-06-14T14:33:24;3.15;;;2.85;;
11618;SDS011;5865;48.776;9.280;2023-06-14T14:35:51;8.48;;;3.00;;
11618;SDS011;5865;48.776;9.280;2023-06-14T14:38:19;3.20;;;2.90;;
11618;SDS011;5865;48.776;9.280;2023-06-14T14:40:46;5.85;;;2.70;;
11618;SDS011;5865;48.776;9.280;2023-06-14T14:43:14;4.40;;;2.75;;
11618;SDS011;5865;48.776;9.280;2023-06-14T14:45:40;3.42;;;3.00;;
11618;SDS011;5865;48.776;9.280;2023-06-14T14:48:08;4.70;;;3.00;;
11618;SDS011;5865;48.776;9.280;2023-06-14T14:50:35;7.45;;;2.80;;
11618;SDS011;5865;48.776;9.280;2023-06-14T14:53:02;4.90;;;2.83;;
11618;SDS011;5865;48.776;9.280;2023-06-14T14:55:30;4.35;;;3.00;;
11618;SDS011;5865;48.776;9.280;2023-06-14T14:58:00;3.30;;;2.55;;
11618;SDS011;5865;48.776;9.280;2023-06-14T15:00:27;5.95;;;3.10;;
11618;SDS011;5865;48.776;9.280;2023-06-14T15:02:54;3.95;;;3.00;;
11618;SDS011;5865;48.776;9.280;2023-06-14T15:05:21;4.30;;;2.60;;
11618;SDS011;5865;48.776;9.280;2023-06-14T15:07:48;9.20;;;3.40;;
11618;SDS011;5865;48.776;9.280;2023-06-14T15:10:16;23.45;;;5.22;;
11618;SDS011;5865;48.776;9.280;2023-06-14T15:12:45;5.47;;;2.70;;
11618;SDS011;5865;48.776;9.280;2023-06-14T15:15:11;3.13;;;2.88;;
11618;SDS011;5865;48.776;9.280;2023-06-14T15:17:39;4.47;;;2.83;;
11618;SDS011;5865;48.776;9.280;2023-06-14T15:20:06;5.07;;;3.00;;
11618;SDS011;5865;48.776;9.280;2023-06-14T15:22:34;3.40;;;2.60;;
11618;SDS011;5865;48.776;9.280;2023-06-14T15:25:01;4.68;;;2.80;;
11618;SDS011;5865;48.776;9.280;2023-06-14T15:27:28;3.30;;;2.60;;
11618;SDS011;5865;48.776;9.280;2023-06-14T15:29:57;3.28;;;2.55;;
11618;SDS011;5865;48.776;9.280;2023-06-14T15:32:24;3.85;;;2.67;;
11618;SDS011;5865;48.776;9.280;2023-06-14T15:34:51;3.08;;;2.70;;
11618;SDS011;5865;48.776;9.280;2023-06-14T15:37:19;4.30;;;2.60;;
11618;SDS011;5865;48.776;9.280;2023-06-14T15:39:46;5.10;;;2.70;;
11618;SDS011;5865;48.776;9.280;2023-06-14T15:42:13;4.82;;;2.83;;
11618;SDS011;5865;48.776;9.280;2023-06-14T15:44:41;2.90;;;2.60;;
11618;SDS011;5865;48.776;9.280;2023-06-14T15:47:09;4.32;;;2.70;;
11618;SDS011;5865;48.776;9.280;2023-06-14T15:49:37;3.92;;;2.70;;
11618;SDS011;5865;48.776;9.280;2023-06-14T15:52:04;2.97;;;2.67;;
11618;SDS011;5865;48.776;9.280;2023-06-14T15:54:32;4.50;;;2.63;;
11618;SDS011;5865;48.776;9.280;2023-06-14T15:56:59;3.60;;;2.78;;
11618;SDS011;5865;48.776;9.280;2023-06-14T15:59:26;4.82;;;2.60;;
11618;SDS011;5865;48.776;9.280;2023-06-14T16:01:54;2.85;;;2.65;;
11618;SDS011;5865;48.776;9.280;2023-06-14T16:04:22;3.75;;;2.60;;
11618;SDS011;5865;48.776;9.280;2023-06-14T16:06:49;4.63;;;2.78;;
11618;SDS011;5865;48.776;9.280;2023-06-14T16:09:16;2.83;;;2.60;;
11618;SDS011;5865;48.776;9.280;2023-06-14T16:11:44;6.68;;;2.70;;